Time;durP1;ratioP1;P1;durP2;ratioP2;P2;SDS_P1;SDS_P2;PMS_P1;PMS_P2;Temp;Humidity;BMP_temperature;BMP_pressure;BME280_temperature;BME280_humidity;BME280_pressure;Samples;Min_cycle;Max_cycle;Signal;HPM_P1;HPM_P2
2022/03/01 00:01:04;;;;;;;3.80;2.70;;;2.90;99.90;;;;;;5073966;28;20046;-75
2022/03/01 00:03:35;;;;;;;3.67;2.63;;;2.80;99.90;;;;;;5208977;28;20428;-75
2022/03/01 00:06:05;;;;;;;3.97;2.35;;;2.80;99.90;;;;;;5208875;28;20022;-73
2022/03/01 00:08:36;;;;;;;3.88;2.60;;;2.80;99.90;;;;;;5208389;28;20056;-74
2022/03/01 00:11:07;;;;;;;3.58;2.38;;;3.00;99.90;;;;;;5207433;28;20037;-74
2022/03/01 00:13:39;;;;;;;4.43;2.60;;;2.80;99.90;;;;;;5208728;28;20473;-75
2022/03/01 00:16:10;;;;;;;2.92;2.25;;;2.90;99.90;;;;;;5208698;28;20040;-74
2022/03/01 00:18:41;;;;;;;4.40;2.85;;;2.90;99.90;;;;;;5208590;28;20500;-74
2022/03/01 00:21:12;;;;;;;3.30;2.38;;;3.00;99.90;;;;;;5208180;28;20040;-73
2022/03/01 00:23:43;;;;;;;3.38;2.65;;;3.00;99.90;;;;;;5208434;28;20022;-73
2022/03/01 00:26:14;;;;;;;3.58;2.47;;;2.90;99.90;;;;;;5208416;28;20144;-74
2022/03/01 00:28:45;;;;;;;3.97;3.05;;;2.80;99.90;;;;;;5208296;28;20373;-73
2022/03/01 00:31:16;;;;;;;4.15;2.65;;;2.70;99.90;;;;;;5208275;28;20041;-74
2022/03/01 00:33:47;;;;;;;2.90;2.30;;;2.80;99.90;;;;;;5208308;28;20064;-75
2022/03/01 00:36:17;;;;;;;3.90;2.83;;;2.60;99.90;;;;;;5208284;28;20053;-74
2022/03/01 00:38:48;;;;;;;3.42;2.47;;;2.70;99.90;;;;;;5208083;28;20029;-72
2022/03/01 00:41:19;;;;;;;4.90;2.78;;;2.70;99.90;;;;;;5208084;28;20030;-73
2022/03/01 00:43:50;;;;;;;5.35;3.05;;;2.60;99.90;;;;;;5208095;28;20006;-74
2022/03/01 00:46:23;;;;;;;3.38;2.80;;;2.60;99.90;;;;;;5208152;28;20037;-74
2022/03/01 00:48:55;;;;;;;3.70;2.70;;;2.70;99.90;;;;;;5207981;28;20018;-73
2022/03/01 00:51:27;;;;;;;4.38;2.95;;;2.60;99.90;;;;;;5207863;28;20088;-72
2022/03/01 00:53:58;;;;;;;4.80;2.70;;;2.60;99.90;;;;;;5206541;28;20018;-75
2022/03/01 00:56:30;;;;;;;3.25;2.67;;;2.70;99.90;;;;;;5207807;28;20465;-74
2022/03/01 00:59:01;;;;;;;3.85;2.95;;;2.80;99.90;;;;;;5205970;28;20038;-74
2022/03/01 01:01:32;;;;;;;8.20;3.33;;;2.70;99.90;;;;;;5207798;28;20033;-74
2022/03/01 01:04:04;;;;;;;4.00;2.88;;;2.70;99.90;;;;;;5207755;28;20025;-74
2022/03/01 01:06:34;;;;;;;4.72;2.85;;;2.70;99.90;;;;;;5207691;28;20491;-75
2022/03/01 01:09:05;;;;;;;4.35;2.80;;;2.70;99.90;;;;;;5207585;28;20021;-74
2022/03/01 01:11:36;;;;;;;4.82;2.88;;;2.70;99.90;;;;;;5207569;28;20018;-72
2022/03/01 01:14:07;;;;;;;5.28;2.83;;;2.70;99.90;;;;;;5207556;28;20097;-74
2022/03/01 01:16:38;;;;;;;4.07;2.75;;;2.60;99.90;;;;;;5206189;28;20145;-74
2022/03/01 01:19:09;;;;;;;4.95;3.38;;;2.70;99.90;;;;;;5207017;28;20108;-73
2022/03/01 01:24:29;;;;;;;5.80;2.80;;;2.50;99.90;;;;;;5207504;28;20057;-74
2022/03/01 01:27:00;;;;;;;4.40;3.10;;;2.80;99.90;;;;;;5207211;28;20053;-72
2022/03/01 01:29:30;;;;;;;4.43;2.92;;;2.70;99.90;;;;;;5207249;28;20088;-73
2022/03/01 01:32:01;;;;;;;4.28;2.90;;;2.60;99.90;;;;;;5207243;28;20052;-73
2022/03/01 01:34:32;;;;;;;5.57;4.18;;;2.60;99.90;;;;;;5206932;28;20051;-74
2022/03/01 01:37:03;;;;;;;4.07;3.22;;;2.70;99.90;;;;;;5207145;28;20440;-74
2022/03/01 01:39:34;;;;;;;5.15;3.20;;;2.70;99.90;;;;;;5206807;28;20112;-74
2022/03/01 01:42:05;;;;;;;4.68;3.20;;;2.70;99.90;;;;;;5207041;28;20112;-74
2022/03/01 01:44:36;;;;;;;4.40;3.08;;;2.70;99.90;;;;;;5207090;28;20033;-74
2022/03/01 01:47:07;;;;;;;4.05;3.00;;;2.70;99.90;;;;;;5205628;28;20123;-72
2022/03/01 01:49:38;;;;;;;4.43;3.38;;;2.60;99.90;;;;;;5206920;28;20096;-73
2022/03/01 01:52:09;;;;;;;4.90;3.30;;;2.60;99.90;;;;;;5206817;28;20480;-73
2022/03/01 01:54:40;;;;;;;4.97;3.28;;;2.60;99.90;;;;;;5206858;28;20384;-73
2022/03/01 01:57:19;;;;;;;4.75;2.95;;;2.60;99.90;;;;;;5206747;28;20385;-74
2022/03/01 01:59:52;;;;;;;5.80;3.25;;;2.80;99.90;;;;;;5206362;28;20053;-74
2022/03/01 02:02:25;;;;;;;3.63;2.72;;;2.70;99.90;;;;;;5206777;28;20381;-74
2022/03/01 02:04:55;;;;;;;4.45;2.65;;;2.60;99.90;;;;;;5206677;28;20130;-73
2022/03/01 02:07:26;;;;;;;4.50;3.08;;;2.60;99.90;;;;;;5206713;28;20061;-74
2022/03/01 02:09:57;;;;;;;4.15;2.97;;;2.70;99.90;;;;;;5206565;28;20100;-74
2022/03/01 02:12:28;;;;;;;3.88;2.88;;;2.70;99.90;;;;;;5206622;28;20030;-74
2022/03/01 02:14:59;;;;;;;5.13;3.60;;;2.90;99.90;;;;;;5206698;28;20048;-73
2022/03/01 02:17:30;;;;;;;4.80;3.20;;;2.90;99.90;;;;;;5205326;28;20037;-73
2022/03/01 02:20:05;;;;;;;5.07;2.90;;;2.90;99.90;;;;;;5204996;28;20037;-73
2022/03/01 02:22:36;;;;;;;4.97;3.13;;;2.80;99.90;;;;;;5206519;28;20021;-73
2022/03/01 02:25:08;;;;;;;4.93;3.00;;;2.80;99.90;;;;;;5205718;28;20040;-73
2022/03/01 02:27:39;;;;;;;5.70;3.20;;;2.70;99.90;;;;;;5206444;28;20362;-74
2022/03/01 02:30:10;;;;;;;6.30;3.13;;;2.70;99.90;;;;;;5206374;28;20038;-74
2022/03/01 02:32:42;;;;;;;5.10;3.40;;;2.70;99.90;;;;;;5209641;28;20029;-75
2022/03/01 02:35:13;;;;;;;5.30;3.33;;;2.80;99.90;;;;;;5210622;28;20040;-75
2022/03/01 02:37:44;;;;;;;6.95;3.25;;;2.70;99.90;;;;;;5210572;28;20018;-73
2022/03/01 02:40:16;;;;;;;4.50;3.10;;;2.80;99.90;;;;;;5210272;28;20033;-75
2022/03/01 02:42:48;;;;;;;3.90;2.47;;;2.70;99.90;;;;;;5210445;28;20024;-74
2022/03/01 02:45:19;;;;;;;5.22;3.10;;;2.80;99.90;;;;;;5210412;28;20033;-73
2022/03/01 02:47:50;;;;;;;4.45;2.92;;;2.80;99.90;;;;;;5210220;28;20028;-74
2022/03/01 02:50:21;;;;;;;4.35;3.22;;;2.70;99.90;;;;;;5209049;28;20029;-73
2022/03/01 02:52:52;;;;;;;5.13;3.67;;;2.70;99.90;;;;;;5210242;28;20092;-74
2022/03/01 02:55:23;;;;;;;4.43;3.17;;;2.60;99.90;;;;;;5210336;28;20449;-74
2022/03/01 02:57:54;;;;;;;3.97;2.90;;;2.80;99.90;;;;;;5210031;28;20029;-72
2022/03/01 03:00:25;;;;;;;3.88;2.90;;;2.70;99.90;;;;;;5209843;28;20053;-75
2022/03/01 03:02:55;;;;;;;4.90;3.20;;;2.90;99.90;;;;;;5210057;28;20017;-72
2022/03/01 03:05:26;;;;;;;5.25;3.40;;;2.70;99.90;;;;;;5210056;28;20380;-73
2022/03/01 03:07:57;;;;;;;4.13;2.80;;;2.70;99.90;;;;;;5210019;28;20108;-73
2022/03/01 03:10:28;;;;;;;4.85;2.97;;;2.80;99.90;;;;;;5209907;28;20052;-74
2022/03/01 03:13:00;;;;;;;5.90;2.92;;;2.70;99.90;;;;;;5209947;28;20029;-74
2022/03/01 03:15:32;;;;;;;5.88;4.00;;;2.60;99.90;;;;;;5209916;28;20060;-73
2022/03/01 03:18:03;;;;;;;5.25;3.45;;;2.70;99.90;;;;;;5209885;28;20033;-74
2022/03/01 03:20:34;;;;;;;4.97;3.20;;;2.60;99.90;;;;;;5209478;28;20113;-73
2022/03/01 03:23:05;;;;;;;5.45;3.05;;;2.80;99.90;;;;;;5209314;28;20120;-74
2022/03/01 03:25:36;;;;;;;4.43;3.25;;;2.80;99.90;;;;;;5209702;28;20029;-74
2022/03/01 03:28:07;;;;;;;5.65;3.42;;;2.80;99.90;;;;;;5209472;28;20030;-74
2022/03/01 03:30:38;;;;;;;5.05;3.45;;;2.60;99.90;;;;;;5209459;28;20038;-74
2022/03/01 03:33:09;;;;;;;3.88;3.10;;;2.80;99.90;;;;;;5209284;28;20057;-72
2022/03/01 03:35:40;;;;;;;3.85;3.13;;;2.70;99.90;;;;;;5209441;28;20025;-73
2022/03/01 03:38:11;;;;;;;4.22;3.35;;;2.80;99.90;;;;;;5209421;28;20018;-74
2022/03/01 03:40:41;;;;;;;4.88;3.17;;;2.70;99.90;;;;;;5208870;28;20033;-74
2022/03/01 03:43:12;;;;;;;5.78;3.25;;;2.60;99.90;;;;;;5208495;28;20495;-73
2022/03/01 03:45:43;;;;;;;4.82;3.45;;;2.70;99.90;;;;;;5209294;28;20014;-72
2022/03/01 03:48:14;;;;;;;4.03;2.70;;;2.90;99.90;;;;;;5207931;28;20063;-74
2022/03/01 03:50:45;;;;;;;4.85;3.13;;;2.80;99.90;;;;;;5209167;28;20057;-74
2022/03/01 03:53:16;;;;;;;5.30;3.33;;;2.90;99.90;;;;;;5207919;28;20405;-72
2022/03/01 03:55:47;;;;;;;4.78;3.17;;;2.90;99.90;;;;;;5207826;28;20020;-74
2022/03/01 03:58:18;;;;;;;4.20;3.00;;;3.00;99.90;;;;;;5208670;28;20512;-74
2022/03/01 04:00:48;;;;;;;5.00;3.08;;;2.90;99.90;;;;;;5207227;28;20053;-72
2022/03/01 04:03:19;;;;;;;6.15;4.63;;;2.90;99.90;;;;;;5208956;28;20021;-74
2022/03/01 04:05:51;;;;;;;13.15;9.50;;;3.10;99.90;;;;;;5207679;28;20029;-74
2022/03/01 04:08:21;;;;;;;11.38;7.38;;;2.90;99.90;;;;;;5208853;28;20087;-74
2022/03/01 04:10:53;;;;;;;5.97;3.60;;;2.90;99.90;;;;;;5208587;28;20030;-74
2022/03/01 04:13:24;;;;;;;5.03;3.15;;;2.60;99.90;;;;;;5208719;28;20029;-74
2022/03/01 04:15:55;;;;;;;6.35;4.57;;;2.70;99.90;;;;;;5208691;28;20025;-74
2022/03/01 04:18:26;;;;;;;4.25;3.33;;;2.80;99.90;;;;;;5208686;28;20558;-73
2022/03/01 04:20:57;;;;;;;6.10;4.05;;;2.70;99.90;;;;;;5208381;28;20095;-74
2022/03/01 04:23:28;;;;;;;5.70;3.60;;;2.80;99.90;;;;;;5208490;28;20503;-73
2022/03/01 04:25:59;;;;;;;5.88;3.30;;;2.80;99.90;;;;;;5208499;28;20056;-74
2022/03/01 04:28:30;;;;;;;7.60;3.60;;;2.90;99.90;;;;;;5208228;28;20053;-73
2022/03/01 04:31:01;;;;;;;5.50;3.92;;;2.80;99.90;;;;;;5208370;28;20437;-74
2022/03/01 04:33:32;;;;;;;4.50;3.13;;;2.70;99.90;;;;;;5208383;28;20025;-73
2022/03/01 04:36:03;;;;;;;8.43;3.80;;;2.70;99.90;;;;;;5208294;28;20354;-73
2022/03/01 04:38:34;;;;;;;5.18;3.15;;;2.60;99.90;;;;;;5208121;28;20358;-74
2022/03/01 04:41:05;;;;;;;5.80;3.53;;;2.90;99.90;;;;;;5208000;28;20091;-74
2022/03/01 04:43:36;;;;;;;7.13;3.60;;;2.90;99.90;;;;;;5208104;28;20021;-74
2022/03/01 04:46:07;;;;;;;5.07;3.30;;;2.80;99.90;;;;;;5208286;28;20053;-74
2022/03/01 04:48:38;;;;;;;3.97;3.28;;;2.80;99.90;;;;;;5208054;28;20540;-73
2022/03/01 04:51:09;;;;;;;4.47;3.10;;;2.80;99.90;;;;;;5208001;28;20025;-73
2022/03/01 04:53:40;;;;;;;7.70;3.10;;;2.80;99.90;;;;;;5207807;28;20534;-73
2022/03/01 04:56:10;;;;;;;5.28;3.25;;;2.90;99.90;;;;;;5207873;28;20035;-73
2022/03/01 04:58:41;;;;;;;7.43;3.83;;;2.90;99.90;;;;;;5207733;28;20030;-74
2022/03/01 05:01:12;;;;;;;6.13;3.60;;;2.90;99.90;;;;;;5207528;28;20053;-74
2022/03/01 05:03:43;;;;;;;7.97;4.60;;;3.00;99.90;;;;;;5207748;28;20025;-72
2022/03/01 05:06:14;;;;;;;4.93;3.75;;;2.90;99.90;;;;;;5207624;28;20030;-74
2022/03/01 05:08:45;;;;;;;8.57;3.70;;;2.90;99.90;;;;;;5207627;28;20026;-73
2022/03/01 05:11:15;;;;;;;6.10;3.60;;;2.90;99.90;;;;;;5207590;28;20105;-74
2022/03/01 05:13:47;;;;;;;6.18;3.75;;;2.90;99.90;;;;;;5207643;28;20435;-74
2022/03/01 05:16:17;;;;;;;6.90;3.88;;;2.70;99.90;;;;;;5206143;28;20087;-73
2022/03/01 05:18:48;;;;;;;4.57;3.33;;;2.90;99.90;;;;;;5207204;28;20033;-74
2022/03/01 05:21:19;;;;;;;7.45;3.35;;;2.80;99.90;;;;;;5207286;28;20030;-74
2022/03/01 05:23:50;;;;;;;5.43;3.80;;;2.90;99.90;;;;;;5207229;28;20074;-74
2022/03/01 05:26:21;;;;;;;6.90;3.80;;;2.80;99.90;;;;;;5207312;28;20064;-74
2022/03/01 05:28:52;;;;;;;5.57;3.58;;;2.90;99.90;;;;;;5207136;28;20034;-74
2022/03/01 05:31:23;;;;;;;5.50;3.78;;;3.10;99.90;;;;;;5207275;28;20469;-72
2022/03/01 05:33:54;;;;;;;5.43;3.45;;;2.90;99.90;;;;;;5207219;28;20025;-73
2022/03/01 05:36:24;;;;;;;8.20;3.67;;;2.90;99.90;;;;;;5207134;28;20030;-73
2022/03/01 05:38:55;;;;;;;4.90;3.08;;;2.90;99.90;;;;;;5206823;28;20029;-73
2022/03/01 05:41:26;;;;;;;6.80;3.45;;;2.90;99.90;;;;;;5207067;28;20060;-72
2022/03/01 05:43:57;;;;;;;5.20;3.45;;;3.00;99.90;;;;;;5207038;28;20069;-73
2022/03/01 05:46:28;;;;;;;9.82;4.03;;;2.80;99.90;;;;;;5206926;28;20029;-74
2022/03/01 05:48:59;;;;;;;9.15;4.43;;;2.80;99.90;;;;;;5206923;28;20424;-74
2022/03/01 05:51:30;;;;;;;8.38;3.67;;;2.90;99.90;;;;;;5206893;28;20022;-73
2022/03/01 05:54:01;;;;;;;5.20;3.30;;;2.90;99.90;;;;;;5206873;28;20030;-74
2022/03/01 05:56:31;;;;;;;45.25;18.20;;;2.70;99.90;;;;;;5206840;28;20033;-73
2022/03/01 05:59:02;;;;;;;10.88;5.68;;;2.90;99.90;;;;;;5206159;28;20126;-73
2022/03/01 06:01:33;;;;;;;24.33;10.27;;;2.80;99.90;;;;;;5206887;28;20044;-72
2022/03/01 06:04:04;;;;;;;16.13;7.22;;;2.90;99.90;;;;;;5206761;28;20104;-74
2022/03/01 06:06:35;;;;;;;13.15;6.60;;;2.80;99.90;;;;;;5206244;28;20022;-74
2022/03/01 06:09:06;;;;;;;13.93;5.75;;;2.90;99.90;;;;;;5206564;28;20022;-74
2022/03/01 06:11:37;;;;;;;8.77;4.68;;;2.90;99.90;;;;;;5206701;28;20049;-73
2022/03/01 06:14:08;;;;;;;21.35;10.93;;;2.90;99.90;;;;;;5206663;28;20053;-73
2022/03/01 06:16:39;;;;;;;4.70;3.60;;;2.80;99.90;;;;;;5205330;28;20112;-73
2022/03/01 06:19:09;;;;;;;7.20;3.85;;;2.70;99.90;;;;;;5206290;28;20029;-73
2022/03/01 06:21:40;;;;;;;24.42;12.30;;;2.90;99.90;;;;;;5206645;28;20030;-74
2022/03/01 06:24:11;;;;;;;8.65;4.05;;;2.80;99.90;;;;;;5206589;28;20121;-73
2022/03/01 06:26:42;;;;;;;45.05;26.13;;;2.90;99.90;;;;;;5206517;28;20032;-73
2022/03/01 06:29:14;;;;;;;7.47;4.22;;;2.80;99.90;;;;;;5206276;28;20033;-72
2022/03/01 06:31:44;;;;;;;9.38;3.90;;;2.80;99.90;;;;;;5206454;28;20109;-74
2022/03/01 06:34:15;;;;;;;6.22;4.32;;;2.80;99.90;;;;;;5206496;28;20116;-75
2022/03/01 06:36:46;;;;;;;9.50;5.60;;;2.90;99.90;;;;;;5206455;28;20030;-73
2022/03/01 06:39:17;;;;;;;8.60;3.67;;;2.90;99.90;;;;;;5204952;28;20033;-73
2022/03/01 06:41:48;;;;;;;10.75;4.75;;;2.80;99.90;;;;;;5206402;28;20034;-73
2022/03/01 06:44:19;;;;;;;6.25;3.95;;;2.80;99.90;;;;;;5206437;28;20030;-74
2022/03/01 06:46:50;;;;;;;6.65;4.20;;;2.90;99.90;;;;;;5206329;28;20030;-74
2022/03/01 06:49:21;;;;;;;6.88;3.40;;;2.90;99.90;;;;;;5206359;28;20022;-73
2022/03/01 06:51:51;;;;;;;5.80;3.90;;;2.90;99.90;;;;;;5206362;28;20101;-73
2022/03/01 06:54:22;;;;;;;5.97;3.72;;;3.10;99.90;;;;;;5206261;28;20109;-74
2022/03/01 06:56:53;;;;;;;7.72;3.22;;;3.00;99.90;;;;;;5206158;28;20029;-74
2022/03/01 06:59:26;;;;;;;8.52;3.83;;;3.10;99.90;;;;;;5205851;28;20092;-74
2022/03/01 07:01:57;;;;;;;6.82;3.50;;;3.00;99.90;;;;;;5206207;28;20076;-73
2022/03/01 07:04:27;;;;;;;6.43;3.50;;;3.10;99.90;;;;;;5206223;28;20465;-73
2022/03/01 07:06:58;;;;;;;4.47;3.33;;;3.00;99.90;;;;;;5206354;28;20025;-73
2022/03/01 07:09:29;;;;;;;5.50;3.50;;;2.80;99.90;;;;;;5206029;28;20071;-73
2022/03/01 07:12:00;;;;;;;10.20;3.50;;;2.90;99.90;;;;;;5206125;28;20412;-72
2022/03/01 07:14:31;;;;;;;7.53;3.33;;;2.90;99.90;;;;;;5206124;28;20040;-74
2022/03/01 07:17:02;;;;;;;5.72;3.60;;;3.00;99.90;;;;;;5206154;28;20021;-72
2022/03/01 07:19:33;;;;;;;9.05;4.50;;;3.10;99.90;;;;;;5208495;28;20358;-74
2022/03/01 07:22:04;;;;;;;5.97;3.50;;;3.00;99.90;;;;;;5209616;28;20109;-74
2022/03/01 07:24:34;;;;;;;28.40;15.50;;;3.00;99.90;;;;;;5209716;28;20057;-73
2022/03/01 07:27:05;;;;;;;7.47;3.75;;;2.90;99.90;;;;;;5209531;28;20454;-74
2022/03/01 07:29:37;;;;;;;7.65;4.30;;;2.90;99.90;;;;;;5209642;28;20080;-74
2022/03/01 07:32:08;;;;;;;16.67;8.80;;;3.00;99.90;;;;;;5209551;28;20452;-74
2022/03/01 07:34:39;;;;;;;11.23;5.22;;;3.20;99.90;;;;;;5209402;28;20056;-73
2022/03/01 07:37:10;;;;;;;6.82;4.20;;;3.10;99.90;;;;;;5209428;28;20026;-72
2022/03/01 07:39:41;;;;;;;7.75;4.82;;;3.10;99.90;;;;;;5209249;28;20038;-73
2022/03/01 07:42:12;;;;;;;8.32;5.78;;;3.20;99.90;;;;;;5209357;28;20037;-74
2022/03/01 07:44:43;;;;;;;10.70;6.40;;;3.00;99.90;;;;;;5209251;28;20350;-74
2022/03/01 07:47:13;;;;;;;12.40;6.40;;;3.10;99.90;;;;;;5209273;28;20029;-74
2022/03/01 07:49:44;;;;;;;11.50;6.25;;;3.20;99.90;;;;;;5209100;28;20025;-73
2022/03/01 07:52:15;;;;;;;10.00;6.75;;;3.20;99.90;;;;;;5209104;28;20171;-74
2022/03/01 07:54:47;;;;;;;11.77;6.22;;;3.30;99.90;;;;;;5209147;28;20033;-75
2022/03/01 07:57:18;;;;;;;9.50;5.65;;;3.30;99.90;;;;;;5209028;28;20542;-73
2022/03/01 07:59:49;;;;;;;12.02;6.43;;;3.10;99.90;;;;;;5208549;28;20053;-74
2022/03/01 08:02:20;;;;;;;15.23;6.30;;;3.10;99.90;;;;;;5209070;28;20112;-74
2022/03/01 08:04:50;;;;;;;9.88;5.80;;;3.20;99.90;;;;;;5208972;28;20461;-73
2022/03/01 08:07:22;;;;;;;9.88;6.38;;;3.30;99.90;;;;;;5208921;28;20021;-74
2022/03/01 08:09:53;;;;;;;11.25;6.38;;;3.30;99.90;;;;;;5209041;28;20160;-74
2022/03/01 08:12:24;;;;;;;9.10;5.63;;;3.40;99.90;;;;;;5208856;28;20116;-73
2022/03/01 08:14:55;;;;;;;12.52;5.53;;;3.30;99.90;;;;;;5208788;28;20074;-74
2022/03/01 08:17:26;;;;;;;10.70;5.90;;;3.30;99.90;;;;;;5208637;28;20014;-73
2022/03/01 08:19:56;;;;;;;10.48;6.70;;;3.50;99.90;;;;;;5208430;28;20048;-74
2022/03/01 08:22:27;;;;;;;10.48;5.80;;;3.40;99.90;;;;;;5208553;28;20040;-74
2022/03/01 08:24:58;;;;;;;15.57;8.52;;;3.40;99.90;;;;;;5207365;28;20028;-74
2022/03/01 08:27:29;;;;;;;13.90;6.53;;;3.40;99.90;;;;;;5208435;28;20036;-74
2022/03/01 08:30:00;;;;;;;16.25;8.10;;;3.40;99.90;;;;;;5208182;28;20033;-73
2022/03/01 08:32:30;;;;;;;18.50;7.53;;;3.30;99.90;;;;;;5208464;28;20018;-73
2022/03/01 08:35:02;;;;;;;13.05;6.50;;;3.40;99.90;;;;;;5208446;28;20069;-73
2022/03/01 08:37:33;;;;;;;12.80;6.15;;;3.40;99.90;;;;;;5208291;28;20468;-73
2022/03/01 08:40:05;;;;;;;7.75;5.13;;;3.20;99.90;;;;;;5208040;28;20602;-73
2022/03/01 08:42:35;;;;;;;9.20;5.90;;;3.30;99.90;;;;;;5208231;28;20033;-73
2022/03/01 08:45:07;;;;;;;13.13;6.68;;;3.40;99.90;;;;;;5208219;28;20032;-73
2022/03/01 08:47:39;;;;;;;6.82;3.95;;;3.50;99.90;;;;;;5208092;28;20021;-73
2022/03/01 08:50:11;;;;;;;13.63;7.13;;;3.30;99.90;;;;;;5208090;28;20021;-73
2022/03/01 08:52:42;;;;;;;10.13;5.82;;;3.30;99.90;;;;;;5207902;28;20383;-74
2022/03/01 08:55:13;;;;;;;11.05;5.85;;;3.30;99.90;;;;;;5207987;28;20022;-74
2022/03/01 08:57:44;;;;;;;8.77;5.10;;;3.40;99.90;;;;;;5207842;28;20026;-73
2022/03/01 09:00:16;;;;;;;8.02;4.70;;;3.50;99.90;;;;;;5207476;28;20559;-72
2022/03/01 09:02:47;;;;;;;11.70;5.45;;;3.50;99.90;;;;;;5207740;28;20029;-73
2022/03/01 09:05:18;;;;;;;10.48;6.38;;;3.40;99.90;;;;;;5207704;28;20029;-74
2022/03/01 09:07:49;;;;;;;11.10;6.50;;;3.50;99.90;;;;;;5207647;28;20034;-73
2022/03/01 09:10:22;;;;;;;9.98;6.40;;;3.60;99.90;;;;;;5207608;28;20021;-72
2022/03/01 09:12:53;;;;;;;7.90;5.47;;;3.50;99.90;;;;;;5207600;28;20032;-74
2022/03/01 09:15:30;;;;;;;9.70;4.70;;;3.50;99.90;;;;;;5207603;28;20026;-74
2022/03/01 09:18:03;;;;;;;7.18;4.60;;;3.60;99.90;;;;;;5207572;28;20025;-72
2022/03/01 09:20:34;;;;;;;7.70;4.88;;;3.40;99.90;;;;;;5207326;28;20061;-74
2022/03/01 09:23:05;;;;;;;11.00;5.78;;;3.60;99.90;;;;;;5207358;28;20029;-72
2022/03/01 09:25:36;;;;;;;8.05;5.30;;;3.50;99.90;;;;;;5207299;28;20021;-73
2022/03/01 09:28:07;;;;;;;8.68;4.97;;;3.60;99.90;;;;;;5207269;28;20087;-72
2022/03/01 09:30:38;;;;;;;6.93;3.83;;;3.40;99.90;;;;;;5207233;28;20037;-73
2022/03/01 09:33:08;;;;;;;6.93;4.70;;;3.40;99.90;;;;;;5207215;28;20030;-74
2022/03/01 09:35:40;;;;;;;7.53;4.22;;;3.50;99.90;;;;;;5207166;28;20084;-73
2022/03/01 09:38:11;;;;;;;5.70;3.97;;;3.40;99.90;;;;;;5207163;28;20021;-73
2022/03/01 09:40:46;;;;;;;8.82;4.95;;;3.60;99.90;;;;;;5206272;28;20041;-73
2022/03/01 09:43:17;;;;;;;7.95;4.18;;;3.50;99.90;;;;;;5207044;28;20104;-73
2022/03/01 09:45:48;;;;;;;10.38;4.97;;;3.50;99.90;;;;;;5207093;28;20088;-74
2022/03/01 09:48:19;;;;;;;9.02;5.30;;;3.50;99.90;;;;;;5207025;28;20030;-73
2022/03/01 09:50:50;;;;;;;9.30;5.15;;;3.60;99.90;;;;;;5205807;28;20539;-74
2022/03/01 09:53:21;;;;;;;11.30;5.30;;;3.60;99.90;;;;;;5206867;28;20445;-73
2022/03/01 09:55:52;;;;;;;6.88;4.30;;;3.60;99.90;;;;;;5206845;28;20104;-73
2022/03/01 09:58:23;;;;;;;9.90;5.13;;;3.60;99.90;;;;;;5206667;28;20026;-73
2022/03/01 10:00:54;;;;;;;8.35;4.97;;;3.60;99.90;;;;;;5206561;28;20397;-73
2022/03/01 10:03:29;;;;;;;7.22;4.07;;;3.60;99.90;;;;;;5206676;28;20489;-74
2022/03/01 10:06:11;;;;;;;11.98;4.70;;;3.50;99.90;;;;;;5206860;28;20027;-72
2022/03/01 10:08:43;;;;;;;4.63;2.80;;;3.50;99.90;;;;;;5206706;28;20025;-73
2022/03/01 10:11:18;;;;;;;6.55;4.10;;;3.50;99.90;;;;;;5206782;28;20029;-74
2022/03/01 10:13:57;;;;;;;9.23;4.82;;;3.60;99.90;;;;;;5205390;28;20056;-73
2022/03/01 10:16:37;;;;;;;7.75;4.47;;;3.80;99.90;;;;;;5206626;28;20108;-73
2022/03/01 10:19:17;;;;;;;7.68;4.32;;;3.70;99.90;;;;;;5206336;28;20032;-73
2022/03/01 10:22:08;;;;;;;9.03;4.90;;;3.90;99.90;;;;;;5206609;28;20357;-74
2022/03/01 10:24:47;;;;;;;6.53;3.80;;;3.80;99.90;;;;;;5206480;28;20108;-73
2022/03/01 10:27:28;;;;;;;7.63;3.72;;;3.90;99.90;;;;;;5205305;28;20472;-72
2022/03/01 10:29:59;;;;;;;8.40;4.35;;;3.60;99.90;;;;;;5206530;28;20030;-72
2022/03/01 10:32:30;;;;;;;7.03;3.88;;;3.90;99.90;;;;;;5206494;28;20027;-74
2022/03/01 10:35:07;;;;;;;9.38;5.57;;;4.00;99.90;;;;;;5206465;28;20022;-73
2022/03/01 10:37:40;;;;;;;14.20;5.25;;;4.00;99.90;;;;;;5206436;28;20018;-74
2022/03/01 10:40:20;;;;;;;9.68;4.50;;;4.00;99.90;;;;;;5206097;28;20037;-74
2022/03/01 10:43:04;;;;;;;5.97;4.00;;;4.20;99.90;;;;;;5206499;28;20100;-74
2022/03/01 10:45:41;;;;;;;7.60;3.47;;;4.00;99.90;;;;;;5206381;28;20025;-74
2022/03/01 10:48:24;;;;;;;5.30;3.30;;;3.90;99.90;;;;;;5206259;28;20033;-74
2022/03/01 10:51:03;;;;;;;9.18;5.05;;;4.00;99.90;;;;;;5206432;28;20033;-73
2022/03/01 10:53:36;;;;;;;8.65;4.00;;;3.80;99.90;;;;;;5209150;28;20574;-73
2022/03/01 10:56:10;;;;;;;7.57;4.18;;;3.70;99.90;;;;;;5210250;28;20021;-74
2022/03/01 10:58:43;;;;;;;7.93;3.85;;;3.70;99.90;;;;;;5210074;28;20423;-74
2022/03/01 11:01:14;;;;;;;11.90;4.93;;;3.70;99.90;;;;;;5210038;28;20400;-73
2022/03/01 11:03:48;;;;;;;6.78;4.03;;;3.80;99.90;;;;;;5208870;28;20124;-74
2022/03/01 11:06:19;;;;;;;6.43;3.58;;;3.80;99.90;;;;;;5210086;28;20432;-74
2022/03/01 11:08:51;;;;;;;6.63;4.20;;;3.80;99.90;;;;;;5209968;28;20079;-73
2022/03/01 11:11:24;;;;;;;6.57;3.85;;;3.90;99.90;;;;;;5210014;28;20045;-73
2022/03/01 11:13:57;;;;;;;6.80;3.53;;;3.80;99.90;;;;;;5209880;28;20424;-72
2022/03/01 11:16:45;;;;;;;6.30;3.42;;;3.80;99.90;;;;;;5209880;28;20024;-73
2022/03/01 11:19:34;;;;;;;6.25;4.00;;;3.80;99.90;;;;;;5209681;28;21105;-73
2022/03/01 11:22:06;;;;;;;5.85;3.28;;;3.80;99.90;;;;;;5209741;28;20376;-73
2022/03/01 11:24:37;;;;;;;5.88;3.60;;;3.80;99.90;;;;;;5209718;28;20147;-73
2022/03/01 11:27:08;;;;;;;8.95;3.25;;;4.00;99.90;;;;;;5209557;28;20622;-73
2022/03/01 11:29:41;;;;;;;5.53;3.45;;;3.90;99.90;;;;;;5209497;28;20500;-74
2022/03/01 11:32:15;;;;;;;5.75;2.83;;;4.10;99.90;;;;;;5209590;28;20017;-73
2022/03/01 11:34:46;;;;;;;5.55;3.25;;;3.90;99.90;;;;;;5209493;28;20064;-73
2022/03/01 11:37:19;;;;;;;4.60;3.15;;;3.90;99.90;;;;;;5209420;28;20017;-73
2022/03/01 11:40:04;;;;;;;5.28;2.92;;;3.90;99.90;;;;;;5209201;28;20033;-73
2022/03/01 11:42:35;;;;;;;6.18;4.00;;;4.10;99.90;;;;;;5209481;28;20040;-73
2022/03/01 11:45:10;;;;;;;7.35;4.50;;;4.00;99.90;;;;;;5209309;28;20025;-74
2022/03/01 11:47:41;;;;;;;7.75;3.80;;;4.00;99.90;;;;;;5209234;28;20104;-73
2022/03/01 11:50:18;;;;;;;6.10;3.83;;;4.10;99.90;;;;;;5209169;28;20052;-73
2022/03/01 11:53:06;;;;;;;7.60;3.60;;;4.20;99.90;;;;;;5209129;28;20797;-72
2022/03/01 11:55:43;;;;;;;6.45;3.90;;;4.20;99.90;;;;;;5209242;28;20355;-73
2022/03/01 11:58:15;;;;;;;7.95;4.30;;;4.20;99.90;;;;;;5208986;28;20030;-73
2022/03/01 12:00:47;;;;;;;7.30;4.07;;;4.30;99.90;;;;;;5208694;28;20525;-73
2022/03/01 12:03:26;;;;;;;5.40;3.58;;;4.30;99.90;;;;;;5209058;28;20026;-73
2022/03/01 12:05:58;;;;;;;7.20;3.80;;;4.30;99.90;;;;;;5208558;28;20029;-74
2022/03/01 12:08:29;;;;;;;4.95;3.35;;;4.30;99.90;;;;;;5208945;28;20029;-73
2022/03/01 12:11:07;;;;;;;4.60;3.53;;;4.30;99.90;;;;;;5208740;28;20025;-72
2022/03/01 12:13:46;;;;;;;9.35;3.83;;;4.30;99.90;;;;;;5208889;28;20032;-73
2022/03/01 12:16:27;;;;;;;5.05;3.10;;;4.30;99.90;;;;;;5208905;28;20028;-73
2022/03/01 12:19:13;;;;;;;6.35;3.97;;;4.50;99.90;;;;;;5208518;28;20100;-72
2022/03/01 12:21:52;;;;;;;5.90;3.65;;;4.50;99.90;;;;;;5208609;28;20049;-73
2022/03/01 12:24:24;;;;;;;8.88;3.90;;;4.60;99.90;;;;;;5208690;28;20036;-73
2022/03/01 12:27:04;;;;;;;6.45;4.18;;;4.50;99.90;;;;;;5208426;28;20472;-74
2022/03/01 12:29:36;;;;;;;6.47;3.53;;;4.70;99.90;;;;;;5208499;28;20029;-74
2022/03/01 12:32:10;;;;;;;6.95;4.10;;;4.40;99.90;;;;;;5208464;28;20037;-73
2022/03/01 12:34:42;;;;;;;7.03;4.00;;;4.60;99.90;;;;;;5208377;28;20076;-73
2022/03/01 12:37:18;;;;;;;7.15;3.38;;;4.60;99.90;;;;;;5208346;28;20436;-73
2022/03/01 12:39:49;;;;;;;7.00;3.85;;;4.20;99.90;;;;;;5208017;28;20037;-72
2022/03/01 12:42:21;;;;;;;4.65;3.20;;;4.30;99.90;;;;;;5208192;28;20415;-72
2022/03/01 12:44:52;;;;;;;6.40;3.70;;;4.30;99.90;;;;;;5208144;28;20028;-73
2022/03/01 12:47:23;;;;;;;6.85;4.22;;;4.30;99.90;;;;;;5208185;28;20029;-73
2022/03/01 12:49:54;;;;;;;9.07;3.83;;;4.30;99.90;;;;;;5206766;28;20553;-72
2022/03/01 12:52:25;;;;;;;5.78;3.72;;;4.10;99.90;;;;;;5207989;28;20025;-72
2022/03/01 12:54:56;;;;;;;5.25;3.50;;;4.10;99.90;;;;;;5208018;28;20022;-74
2022/03/01 12:57:36;;;;;;;7.78;3.88;;;4.10;99.90;;;;;;5207725;28;20029;-73
2022/03/01 13:00:11;;;;;;;8.10;4.32;;;4.10;99.90;;;;;;5207408;28;20140;-72
2022/03/01 13:02:55;;;;;;;5.68;3.33;;;4.10;99.90;;;;;;5207825;28;20082;-74
2022/03/01 13:05:28;;;;;;;6.03;3.63;;;4.10;99.90;;;;;;5207803;28;20033;-73
2022/03/01 13:07:59;;;;;;;5.63;3.42;;;4.10;99.90;;;;;;5207760;28;20030;-73
2022/03/01 13:10:33;;;;;;;6.90;4.25;;;4.20;99.90;;;;;;5207704;28;20109;-73
2022/03/01 13:13:08;;;;;;;7.70;3.53;;;4.30;99.90;;;;;;5207660;28;20488;-73
2022/03/01 13:15:45;;;;;;;8.35;3.97;;;4.30;99.90;;;;;;5206714;28;20029;-73
2022/03/01 13:18:26;;;;;;;8.52;3.90;;;4.20;99.90;;;;;;5207433;28;20032;-74
2022/03/01 13:20:57;;;;;;;10.73;5.55;;;4.00;99.90;;;;;;5207319;28;20107;-72
2022/03/01 13:23:32;;;;;;;6.63;4.05;;;4.20;99.90;;;;;;5207353;28;20025;-73